sensor_id;sensor_type;location;lat;lon;timestamp;P1;durP1;ratioP1;P2;durP2;ratioP2
30289;SDS011;17105;55.652;37.710;2023-02-20T00:00:29;44.67;;;17.83;;
30289;SDS011;17105;55.652;37.710;2023-02-20T00:01:06;44.88;;;17.50;;
30289;SDS011;17105;55.652;37.710;2023-02-20T00:01:44;39.70;;;17.05;;
30289;SDS011;17105;55.652;37.710;2023-02-20T00:02:20;39.92;;;16.63;;
30289;SDS011;17105;55.652;37.710;2023-02-20T00:02:53;41.47;;;17.08;;
30289;SDS011;17105;55.652;37.710;2023-02-20T00:03:29;40.03;;;16.75;;
30289;SDS011;17105;55.652;37.710;2023-02-20T00:04:04;38.85;;;16.60;;
30289;SDS011;17105;55.652;37.710;2023-02-20T00:04:37;38.35;;;15.77;;
30289;SDS011;17105;55.652;37.710;2023-02-20T00:05:12;38.55;;;16.48;;
30289;SDS011;17105;55.652;37.710;2023-02-20T00:05:46;38.90;;;16.77;;
30289;SDS011;17105;55.652;37.710;2023-02-20T00:06:20;41.20;;;16.45;;
30289;SDS011;17105;55.652;37.710;2023-02-20T00:06:55;37.50;;;16.80;;
30289;SDS011;17105;55.652;37.710;2023-02-20T00:07:31;39.92;;;15.40;;
30289;SDS011;17105;55.652;37.710;2023-02-20T00:08:05;37.17;;;16.58;;
30289;SDS011;17105;55.652;37.710;2023-02-20T00:08:41;40.25;;;16.27;;
30289;SDS011;17105;55.652;37.710;2023-02-20T00:09:16;35.88;;;15.52;;
30289;SDS011;17105;55.652;37.710;2023-02-20T00:09:50;37.10;;;15.63;;
30289;SDS011;17105;55.652;37.710;2023-02-20T00:10:24;38.22;;;16.15;;
30289;SDS011;17105;55.652;37.710;2023-02-20T00:10:59;39.90;;;16.70;;
30289;SDS011;17105;55.652;37.710;2023-02-20T00:11:35;42.05;;;16.33;;
30289;SDS011;17105;55.652;37.710;2023-02-20T00:12:10;37.83;;;15.35;;
30289;SDS011;17105;55.652;37.710;2023-02-20T00:12:45;38.80;;;16.23;;
30289;SDS011;17105;55.652;37.710;2023-02-20T00:13:19;36.65;;;14.43;;
30289;SDS011;17105;55.652;37.710;2023-02-20T00:13:52;40.00;;;15.85;;
30289;SDS011;17105;55.652;37.710;2023-02-20T00:14:28;34.78;;;15.52;;
30289;SDS011;17105;55.652;37.710;2023-02-20T00:15:01;36.92;;;15.15;;
30289;SDS011;17105;55.652;37.710;2023-02-20T00:15:36;35.95;;;14.60;;
30289;SDS011;17105;55.652;37.710;2023-02-20T00:16:10;33.53;;;15.50;;
30289;SDS011;17105;55.652;37.710;2023-02-20T00:16:45;38.00;;;14.93;;
30289;SDS011;17105;55.652;37.710;2023-02-20T00:17:20;37.35;;;14.48;;
30289;SDS011;17105;55.652;37.710;2023-02-20T00:17:56;37.45;;;14.45;;
30289;SDS011;17105;55.652;37.710;2023-02-20T00:18:30;33.22;;;14.50;;
30289;SDS011;17105;55.652;37.710;2023-02-20T00:19:04;34.15;;;14.65;;
30289;SDS011;17105;55.652;37.710;2023-02-20T00:19:41;35.17;;;14.23;;
30289;SDS011;17105;55.652;37.710;2023-02-20T00:20:16;39.33;;;14.82;;
30289;SDS011;17105;55.652;37.710;2023-02-20T00:20:52;35.15;;;14.68;;
30289;SDS011;17105;55.652;37.710;2023-02-20T00:21:27;37.72;;;15.30;;
30289;SDS011;17105;55.652;37.710;2023-02-20T00:22:00;32.63;;;14.13;;
30289;SDS011;17105;55.652;37.710;2023-02-20T00:22:36;34.17;;;14.60;;
30289;SDS011;17105;55.652;37.710;2023-02-20T00:23:12;32.65;;;14.68;;
30289;SDS011;17105;55.652;37.710;2023-02-20T00:23:46;35.45;;;14.05;;
30289;SDS011;17105;55.652;37.710;2023-02-20T00:24:24;31.83;;;13.60;;
30289;SDS011;17105;55.652;37.710;2023-02-20T00:24:59;36.00;;;14.85;;
30289;SDS011;17105;55.652;37.710;2023-02-20T00:25:33;32.03;;;14.25;;
30289;SDS011;17105;55.652;37.710;2023-02-20T00:26:08;34.53;;;14.35;;
30289;SDS011;17105;55.652;37.710;2023-02-20T00:26:46;32.28;;;13.40;;
30289;SDS011;17105;55.652;37.710;2023-02-20T00:27:21;39.58;;;14.45;;
30289;SDS011;17105;55.652;37.710;2023-02-20T00:27:55;31.40;;;13.90;;
30289;SDS011;17105;55.652;37.710;2023-02-20T00:28:31;33.05;;;14.57;;
30289;SDS011;17105;55.652;37.710;2023-02-20T00:29:05;34.75;;;14.32;;
30289;SDS011;17105;55.652;37.710;2023-02-20T00:29:39;34.05;;;14.30;;
30289;SDS011;17105;55.652;37.710;2023-02-20T00:30:15;37.03;;;14.98;;
30289;SDS011;17105;55.652;37.710;2023-02-20T00:30:50;33.80;;;14.27;;
30289;SDS011;17105;55.652;37.710;2023-02-20T00:31:23;34.72;;;15.32;;
30289;SDS011;17105;55.652;37.710;2023-02-20T00:31:58;31.83;;;14.40;;
30289;SDS011;17105;55.652;37.710;2023-02-20T00:32:36;31.75;;;13.73;;
30289;SDS011;17105;55.652;37.710;2023-02-20T00:33:11;35.53;;;14.43;;
30289;SDS011;17105;55.652;37.710;2023-02-20T00:33:45;34.28;;;13.73;;
30289;SDS011;17105;55.652;37.710;2023-02-20T00:34:19;35.33;;;14.25;;
30289;SDS011;17105;55.652;37.710;2023-02-20T00:34:52;32.45;;;13.52;;
30289;SDS011;17105;55.652;37.710;2023-02-20T00:35:27;32.17;;;13.95;;
30289;SDS011;17105;55.652;37.710;2023-02-20T00:36:01;32.42;;;14.18;;
30289;SDS011;17105;55.652;37.710;2023-02-20T00:36:35;34.75;;;14.35;;
30289;SDS011;17105;55.652;37.710;2023-02-20T00:37:11;33.63;;;14.32;;
30289;SDS011;17105;55.652;37.710;2023-02-20T00:37:45;34.13;;;13.93;;
30289;SDS011;17105;55.652;37.710;2023-02-20T00:38:20;38.25;;;14.23;;
30289;SDS011;17105;55.652;37.710;2023-02-20T00:38:54;35.13;;;14.27;;
30289;SDS011;17105;55.652;37.710;2023-02-20T00:39:30;33.13;;;14.63;;
30289;SDS011;17105;55.652;37.710;2023-02-20T00:40:06;32.42;;;14.15;;
30289;SDS011;17105;55.652;37.710;2023-02-20T00:40:41;35.75;;;14.18;;
30289;SDS011;17105;55.652;37.710;2023-02-20T00:41:17;33.83;;;13.48;;
30289;SDS011;17105;55.652;37.710;2023-02-20T00:41:53;33.90;;;13.77;;
30289;SDS011;17105;55.652;37.710;2023-02-20T00:42:28;34.15;;;13.85;;
30289;SDS011;17105;55.652;37.710;2023-02-20T00:43:03;35.13;;;14.02;;
30289;SDS011;17105;55.652;37.710;2023-02-20T00:43:39;32.70;;;14.02;;
30289;SDS011;17105;55.652;37.710;2023-02-20T00:44:13;36.67;;;14.23;;
30289;SDS011;17105;55.652;37.710;2023-02-20T00:44:47;35.97;;;14.00;;
30289;SDS011;17105;55.652;37.710;2023-02-20T00:45:22;30.48;;;12.95;;
30289;SDS011;17105;55.652;37.710;2023-02-20T00:45:55;41.65;;;15.27;;
30289;SDS011;17105;55.652;37.710;2023-02-20T00:46:30;34.10;;;13.95;;
30289;SDS011;17105;55.652;37.710;2023-02-20T00:47:05;31.65;;;13.13;;
30289;SDS011;17105;55.652;37.710;2023-02-20T00:47:39;34.40;;;14.70;;
30289;SDS011;17105;55.652;37.710;2023-02-20T00:48:15;34.92;;;14.93;;
30289;SDS011;17105;55.652;37.710;2023-02-20T00:48:48;34.30;;;14.45;;
30289;SDS011;17105;55.652;37.710;2023-02-20T00:49:41;33.88;;;14.02;;
30289;SDS011;17105;55.652;37.710;2023-02-20T00:50:18;33.72;;;14.35;;
30289;SDS011;17105;55.652;37.710;2023-02-20T00:50:52;34.00;;;14.77;;
30289;SDS011;17105;55.652;37.710;2023-02-20T00:51:26;31.75;;;13.57;;
30289;SDS011;17105;55.652;37.710;2023-02-20T00:52:03;38.20;;;14.65;;
30289;SDS011;17105;55.652;37.710;2023-02-20T00:52:39;32.45;;;14.13;;
30289;SDS011;17105;55.652;37.710;2023-02-20T00:53:15;34.65;;;14.02;;
30289;SDS011;17105;55.652;37.710;2023-02-20T00:53:49;34.78;;;14.23;;
30289;SDS011;17105;55.652;37.710;2023-02-20T00:54:23;33.78;;;13.73;;
30289;SDS011;17105;55.652;37.710;2023-02-20T00:54:59;32.30;;;14.38;;
30289;SDS011;17105;55.652;37.710;2023-02-20T00:55:33;33.70;;;14.75;;
30289;SDS011;17105;55.652;37.710;2023-02-20T00:56:07;37.10;;;14.45;;
30289;SDS011;17105;55.652;37.710;2023-02-20T00:56:44;33.95;;;14.48;;
30289;SDS011;17105;55.652;37.710;2023-02-20T00:57:17;34.13;;;14.65;;
30289;SDS011;17105;55.652;37.710;2023-02-20T00:57:51;33.20;;;13.90;;
30289;SDS011;17105;55.652;37.710;2023-02-20T00:58:26;35.72;;;14.82;;
30289;SDS011;17105;55.652;37.710;2023-02-20T00:59:01;35.42;;;15.05;;
30289;SDS011;17105;55.652;37.710;2023-02-20T00:59:35;35.30;;;14.55;;
30289;SDS011;17105;55.652;37.710;2023-02-20T01:00:15;33.10;;;13.98;;
30289;SDS011;17105;55.652;37.710;2023-02-20T01:00:50;38.03;;;14.43;;
30289;SDS011;17105;55.652;37.710;2023-02-20T01:01:26;31.65;;;13.68;;
30289;SDS011;17105;55.652;37.710;2023-02-20T01:02:01;34.78;;;15.07;;
30289;SDS011;17105;55.652;37.710;2023-02-20T01:02:35;33.65;;;14.50;;
30289;SDS011;17105;55.652;37.710;2023-02-20T01:03:10;35.78;;;14.15;;
30289;SDS011;17105;55.652;37.710;2023-02-20T01:03:45;34.45;;;13.88;;
30289;SDS011;17105;55.652;37.710;2023-02-20T01:04:19;34.53;;;14.15;;
30289;SDS011;17105;55.652;37.710;2023-02-20T01:04:53;34.03;;;14.20;;
30289;SDS011;17105;55.652;37.710;2023-02-20T01:05:27;34.67;;;14.82;;
30289;SDS011;17105;55.652;37.710;2023-02-20T01:06:03;32.78;;;14.50;;
30289;SDS011;17105;55.652;37.710;2023-02-20T01:06:38;34.33;;;13.98;;
30289;SDS011;17105;55.652;37.710;2023-02-20T01:07:12;33.40;;;13.75;;
30289;SDS011;17105;55.652;37.710;2023-02-20T01:07:46;37.33;;;14.90;;
30289;SDS011;17105;55.652;37.710;2023-02-20T01:08:20;38.35;;;14.35;;
30289;SDS011;17105;55.652;37.710;2023-02-20T01:08:55;33.00;;;14.20;;
30289;SDS011;17105;55.652;37.710;2023-02-20T01:09:28;34.92;;;15.27;;
30289;SDS011;17105;55.652;37.710;2023-02-20T01:10:06;32.33;;;14.55;;
30289;SDS011;17105;55.652;37.710;2023-02-20T01:10:42;39.20;;;15.82;;
30289;SDS011;17105;55.652;37.710;2023-02-20T01:11:15;33.58;;;14.43;;
30289;SDS011;17105;55.652;37.710;2023-02-20T01:11:50;36.40;;;15.15;;
30289;SDS011;17105;55.652;37.710;2023-02-20T01:12:24;33.80;;;14.27;;
30289;SDS011;17105;55.652;37.710;2023-02-20T01:12:58;39.50;;;15.30;;
30289;SDS011;17105;55.652;37.710;2023-02-20T01:13:34;34.15;;;13.93;;
30289;SDS011;17105;55.652;37.710;2023-02-20T01:14:10;36.25;;;15.02;;
30289;SDS011;17105;55.652;37.710;2023-02-20T01:14:44;34.10;;;14.90;;
30289;SDS011;17105;55.652;37.710;2023-02-20T01:15:18;36.33;;;14.95;;
30289;SDS011;17105;55.652;37.710;2023-02-20T01:15:53;34.90;;;14.05;;
30289;SDS011;17105;55.652;37.710;2023-02-20T01:16:26;34.63;;;13.88;;
30289;SDS011;17105;55.652;37.710;2023-02-20T01:17:02;38.35;;;14.45;;
30289;SDS011;17105;55.652;37.710;2023-02-20T01:17:37;35.20;;;14.80;;
30289;SDS011;17105;55.652;37.710;2023-02-20T01:18:11;35.08;;;14.90;;
30289;SDS011;17105;55.652;37.710;2023-02-20T01:18:47;33.72;;;13.85;;
30289;SDS011;17105;55.652;37.710;2023-02-20T01:19:23;30.98;;;13.30;;
30289;SDS011;17105;55.652;37.710;2023-02-20T01:19:57;31.40;;;13.73;;
30289;SDS011;17105;55.652;37.710;2023-02-20T01:20:33;34.03;;;13.45;;
30289;SDS011;17105;55.652;37.710;2023-02-20T01:21:08;37.88;;;15.20;;
30289;SDS011;17105;55.652;37.710;2023-02-20T01:21:42;32.78;;;13.95;;
30289;SDS011;17105;55.652;37.710;2023-02-20T01:22:16;37.90;;;14.70;;
30289;SDS011;17105;55.652;37.710;2023-02-20T01:22:53;35.75;;;14.77;;
30289;SDS011;17105;55.652;37.710;2023-02-20T01:23:26;36.38;;;14.23;;
30289;SDS011;17105;55.652;37.710;2023-02-20T01:24:01;31.52;;;14.25;;
30289;SDS011;17105;55.652;37.710;2023-02-20T01:24:35;36.67;;;14.98;;
30289;SDS011;17105;55.652;37.710;2023-02-20T01:25:11;35.10;;;13.90;;
30289;SDS011;17105;55.652;37.710;2023-02-20T01:25:48;33.92;;;13.95;;
30289;SDS011;17105;55.652;37.710;2023-02-20T01:26:21;33.13;;;14.63;;
30289;SDS011;17105;55.652;37.710;2023-02-20T01:26:55;34.75;;;14.43;;
30289;SDS011;17105;55.652;37.710;2023-02-20T01:27:30;34.03;;;14.18;;
30289;SDS011;17105;55.652;37.710;2023-02-20T01:28:04;36.65;;;14.93;;
30289;SDS011;17105;55.652;37.710;2023-02-20T01:28:42;34.88;;;14.65;;
30289;SDS011;17105;55.652;37.710;2023-02-20T01:29:17;33.30;;;13.95;;
30289;SDS011;17105;55.652;37.710;2023-02-20T01:29:51;35.92;;;14.05;;
30289;SDS011;17105;55.652;37.710;2023-02-20T01:30:25;37.45;;;14.43;;
30289;SDS011;17105;55.652;37.710;2023-02-20T01:30:59;33.58;;;13.70;;
30289;SDS011;17105;55.652;37.710;2023-02-20T01:31:37;34.03;;;13.95;;
30289;SDS011;17105;55.652;37.710;2023-02-20T01:32:12;34.40;;;14.13;;
30289;SDS011;17105;55.652;37.710;2023-02-20T01:32:48;39.70;;;14.85;;
30289;SDS011;17105;55.652;37.710;2023-02-20T01:33:21;28.92;;;13.35;;
30289;SDS011;17105;55.652;37.710;2023-02-20T01:33:55;39.13;;;14.35;;
30289;SDS011;17105;55.652;37.710;2023-02-20T01:34:30;31.38;;;13.50;;
30289;SDS011;17105;55.652;37.710;2023-02-20T01:35:04;33.60;;;13.30;;
30289;SDS011;17105;55.652;37.710;2023-02-20T01:35:38;29.38;;;13.10;;
30289;SDS011;17105;55.652;37.710;2023-02-20T01:36:12;35.13;;;14.15;;
30289;SDS011;17105;55.652;37.710;2023-02-20T01:36:48;29.80;;;13.25;;
30289;SDS011;17105;55.652;37.710;2023-02-20T01:37:22;29.20;;;13.07;;
30289;SDS011;17105;55.652;37.710;2023-02-20T01:37:56;31.30;;;13.20;;
30289;SDS011;17105;55.652;37.710;2023-02-20T01:38:31;29.15;;;12.57;;
30289;SDS011;17105;55.652;37.710;2023-02-20T01:39:07;33.30;;;13.50;;
30289;SDS011;17105;55.652;37.710;2023-02-20T01:39:42;30.75;;;13.55;;
30289;SDS011;17105;55.652;37.710;2023-02-20T01:40:20;36.70;;;14.10;;
30289;SDS011;17105;55.652;37.710;2023-02-20T01:40:55;32.15;;;12.98;;
30289;SDS011;17105;55.652;37.710;2023-02-20T01:41:29;31.55;;;13.80;;
30289;SDS011;17105;55.652;37.710;2023-02-20T01:42:05;38.17;;;13.70;;
30289;SDS011;17105;55.652;37.710;2023-02-20T01:42:44;34.30;;;14.07;;
30289;SDS011;17105;55.652;37.710;2023-02-20T01:43:17;31.23;;;13.80;;
30289;SDS011;17105;55.652;37.710;2023-02-20T01:43:53;31.75;;;14.10;;
30289;SDS011;17105;55.652;37.710;2023-02-20T01:44:28;32.13;;;13.98;;
30289;SDS011;17105;55.652;37.710;2023-02-20T01:45:16;29.63;;;12.48;;
30289;SDS011;17105;55.652;37.710;2023-02-20T01:45:52;23.65;;;10.90;;
30289;SDS011;17105;55.652;37.710;2023-02-20T01:46:41;37.13;;;13.32;;
30289;SDS011;17105;55.652;37.710;2023-02-20T01:47:19;33.78;;;13.48;;
30289;SDS011;17105;55.652;37.710;2023-02-20T01:47:55;34.70;;;13.85;;
30289;SDS011;17105;55.652;37.710;2023-02-20T01:48:30;33.47;;;13.63;;
30289;SDS011;17105;55.652;37.710;2023-02-20T01:49:04;34.28;;;14.25;;
30289;SDS011;17105;55.652;37.710;2023-02-20T01:49:45;33.85;;;13.52;;
30289;SDS011;17105;55.652;37.710;2023-02-20T01:50:24;33.00;;;13.00;;
30289;SDS011;17105;55.652;37.710;2023-02-20T01:51:01;33.92;;;13.88;;
30289;SDS011;17105;55.652;37.710;2023-02-20T01:51:42;36.38;;;14.07;;
30289;SDS011;17105;55.652;37.710;2023-02-20T01:52:20;32.00;;;12.63;;
30289;SDS011;17105;55.652;37.710;2023-02-20T01:53:00;34.83;;;13.88;;
30289;SDS011;17105;55.652;37.710;2023-02-20T01:53:37;31.50;;;13.18;;
30289;SDS011;17105;55.652;37.710;2023-02-20T01:54:13;36.13;;;14.25;;
30289;SDS011;17105;55.652;37.710;2023-02-20T01:54:50;37.08;;;14.55;;
30289;SDS011;17105;55.652;37.710;2023-02-20T01:55:30;32.28;;;14.38;;
30289;SDS011;17105;55.652;37.710;2023-02-20T01:56:10;33.00;;;14.27;;
30289;SDS011;17105;55.652;37.710;2023-02-20T01:56:45;32.38;;;13.95;;
30289;SDS011;17105;55.652;37.710;2023-02-20T01:57:21;34.10;;;14.32;;
30289;SDS011;17105;55.652;37.710;2023-02-20T01:57:58;35.13;;;14.05;;
30289;SDS011;17105;55.652;37.710;2023-02-20T01:58:37;31.88;;;13.35;;
30289;SDS011;17105;55.652;37.710;2023-02-20T01:59:15;36.55;;;13.80;;
30289;SDS011;17105;55.652;37.710;2023-02-20T01:59:51;30.13;;;13.60;;
30289;SDS011;17105;55.652;37.710;2023-02-20T02:00:30;35.38;;;14.45;;
30289;SDS011;17105;55.652;37.710;2023-02-20T02:01:03;33.97;;;13.48;;
30289;SDS011;17105;55.652;37.710;2023-02-20T02:01:38;35.17;;;14.43;;
30289;SDS011;17105;55.652;37.710;2023-02-20T02:02:12;35.80;;;13.77;;
30289;SDS011;17105;55.652;37.710;2023-02-20T02:02:47;34.35;;;14.40;;
30289;SDS011;17105;55.652;37.710;2023-02-20T02:03:25;31.45;;;13.80;;
30289;SDS011;17105;55.652;37.710;2023-02-20T02:04:03;29.15;;;13.68;;
30289;SDS011;17105;55.652;37.710;2023-02-20T02:04:42;32.13;;;13.40;;
30289;SDS011;17105;55.652;37.710;2023-02-20T02:05:17;31.92;;;13.55;;
30289;SDS011;17105;55.652;37.710;2023-02-20T02:05:51;35.97;;;14.23;;
30289;SDS011;17105;55.652;37.710;2023-02-20T02:06:28;34.47;;;13.93;;
30289;SDS011;17105;55.652;37.710;2023-02-20T02:07:05;33.28;;;14.23;;
30289;SDS011;17105;55.652;37.710;2023-02-20T02:07:40;33.97;;;14.52;;
30289;SDS011;17105;55.652;37.710;2023-02-20T02:08:15;29.90;;;13.40;;
30289;SDS011;17105;55.652;37.710;2023-02-20T02:08:52;37.97;;;14.48;;
30289;SDS011;17105;55.652;37.710;2023-02-20T02:09:32;33.85;;;14.02;;
30289;SDS011;17105;55.652;37.710;2023-02-20T02:10:12;28.60;;;13.90;;
30289;SDS011;17105;55.652;37.710;2023-02-20T02:10:50;33.70;;;14.02;;
30289;SDS011;17105;55.652;37.710;2023-02-20T02:11:29;34.13;;;14.23;;
30289;SDS011;17105;55.652;37.710;2023-02-20T02:12:07;29.92;;;13.85;;
30289;SDS011;17105;55.652;37.710;2023-02-20T02:12:41;36.00;;;14.75;;
30289;SDS011;17105;55.652;37.710;2023-02-20T02:13:20;34.72;;;14.32;;
30289;SDS011;17105;55.652;37.710;2023-02-20T02:13:59;35.45;;;14.50;;
30289;SDS011;17105;55.652;37.710;2023-02-20T02:14:36;31.63;;;13.77;;
30289;SDS011;17105;55.652;37.710;2023-02-20T02:15:36;35.20;;;13.95;;
30289;SDS011;17105;55.652;37.710;2023-02-20T02:16:14;29.33;;;12.82;;
30289;SDS011;17105;55.652;37.710;2023-02-20T02:17:10;29.70;;;12.60;;
30289;SDS011;17105;55.652;37.710;2023-02-20T02:18:08;33.28;;;13.25;;
30289;SDS011;17105;55.652;37.710;2023-02-20T02:19:04;26.40;;;12.23;;
30289;SDS011;17105;55.652;37.710;2023-02-20T02:21:31;30.58;;;13.32;;
30289;SDS011;17105;55.652;37.710;2023-02-20T02:22:38;31.17;;;12.77;;
30289;SDS011;17105;55.652;37.710;2023-02-20T02:25:55;31.08;;;12.05;;
30289;SDS011;17105;55.652;37.710;2023-02-20T02:26:45;29.23;;;12.38;;
30289;SDS011;17105;55.652;37.710;2023-02-20T02:29:19;30.17;;;12.32;;
30289;SDS011;17105;55.652;37.710;2023-02-20T02:32:49;30.17;;;12.75;;
30289;SDS011;17105;55.652;37.710;2023-02-20T02:33:55;28.77;;;12.80;;
30289;SDS011;17105;55.652;37.710;2023-02-20T02:34:51;29.83;;;12.05;;
30289;SDS011;17105;55.652;37.710;2023-02-20T02:36:05;32.70;;;11.57;;
30289;SDS011;17105;55.652;37.710;2023-02-20T02:37:07;25.35;;;11.18;;
30289;SDS011;17105;55.652;37.710;2023-02-20T02:37:56;27.23;;;11.80;;
30289;SDS011;17105;55.652;37.710;2023-02-20T02:38:37;26.65;;;11.48;;
30289;SDS011;17105;55.652;37.710;2023-02-20T02:39:20;28.83;;;11.85;;
30289;SDS011;17105;55.652;37.710;2023-02-20T02:40:06;29.95;;;13.35;;
30289;SDS011;17105;55.652;37.710;2023-02-20T02:40:47;29.60;;;12.43;;
30289;SDS011;17105;55.652;37.710;2023-02-20T02:41:31;30.20;;;13.13;;
30289;SDS011;17105;55.652;37.710;2023-02-20T02:42:23;26.25;;;11.15;;
30289;SDS011;17105;55.652;37.710;2023-02-20T02:43:05;28.60;;;13.30;;
30289;SDS011;17105;55.652;37.710;2023-02-20T02:43:45;30.48;;;12.88;;
30289;SDS011;17105;55.652;37.710;2023-02-20T02:44:29;29.10;;;11.55;;
30289;SDS011;17105;55.652;37.710;2023-02-20T02:45:47;27.60;;;12.50;;
30289;SDS011;17105;55.652;37.710;2023-02-20T02:46:26;27.00;;;12.13;;
30289;SDS011;17105;55.652;37.710;2023-02-20T02:47:10;26.10;;;11.70;;
30289;SDS011;17105;55.652;37.710;2023-02-20T02:47:52;29.95;;;11.52;;
30289;SDS011;17105;55.652;37.710;2023-02-20T02:48:32;32.55;;;12.05;;
30289;SDS011;17105;55.652;37.710;2023-02-20T02:49:14;29.02;;;12.25;;
30289;SDS011;17105;55.652;37.710;2023-02-20T02:49:53;26.30;;;11.23;;
30289;SDS011;17105;55.652;37.710;2023-02-20T02:50:34;24.15;;;10.88;;
30289;SDS011;17105;55.652;37.710;2023-02-20T02:51:15;28.95;;;12.15;;
30289;SDS011;17105;55.652;37.710;2023-02-20T02:51:51;27.50;;;11.80;;
30289;SDS011;17105;55.652;37.710;2023-02-20T02:52:26;28.77;;;11.68;;
30289;SDS011;17105;55.652;37.710;2023-02-20T02:53:18;26.13;;;11.88;;
30289;SDS011;17105;55.652;37.710;2023-02-20T02:54:06;28.48;;;12.48;;
30289;SDS011;17105;55.652;37.710;2023-02-20T02:54:43;35.22;;;12.52;;
30289;SDS011;17105;55.652;37.710;2023-02-20T02:55:23;27.02;;;12.00;;
30289;SDS011;17105;55.652;37.710;2023-02-20T02:55:59;30.73;;;12.57;;
30289;SDS011;17105;55.652;37.710;2023-02-20T02:57:57;35.28;;;12.90;;
30289;SDS011;17105;55.652;37.710;2023-02-20T02:58:31;31.27;;;13.25;;
30289;SDS011;17105;55.652;37.710;2023-02-20T02:59:06;34.78;;;13.85;;
30289;SDS011;17105;55.652;37.710;2023-02-20T02:59:44;31.90;;;13.95;;
30289;SDS011;17105;55.652;37.710;2023-02-20T03:00:25;30.60;;;12.23;;
30289;SDS011;17105;55.652;37.710;2023-02-20T03:01:01;30.73;;;13.18;;
30289;SDS011;17105;55.652;37.710;2023-02-20T03:01:37;33.63;;;14.25;;
30289;SDS011;17105;55.652;37.710;2023-02-20T03:02:39;30.20;;;12.60;;
30289;SDS011;17105;55.652;37.710;2023-02-20T03:03:20;33.72;;;14.48;;
30289;SDS011;17105;55.652;37.710;2023-02-20T03:03:57;32.00;;;13.32;;
30289;SDS011;17105;55.652;37.710;2023-02-20T03:04:36;30.55;;;13.02;;
30289;SDS011;17105;55.652;37.710;2023-02-20T03:05:14;30.30;;;13.85;;
30289;SDS011;17105;55.652;37.710;2023-02-20T03:05:57;24.83;;;10.50;;
30289;SDS011;17105;55.652;37.710;2023-02-20T03:06:58;33.03;;;12.40;;
30289;SDS011;17105;55.652;37.710;2023-02-20T03:07:39;30.17;;;13.65;;
30289;SDS011;17105;55.652;37.710;2023-02-20T03:08:23;30.88;;;13.52;;
30289;SDS011;17105;55.652;37.710;2023-02-20T03:09:11;29.42;;;12.98;;
30289;SDS011;17105;55.652;37.710;2023-02-20T03:09:55;33.58;;;13.40;;
30289;SDS011;17105;55.652;37.710;2023-02-20T03:10:41;32.83;;;13.13;;
30289;SDS011;17105;55.652;37.710;2023-02-20T03:11:17;34.30;;;13.93;;
30289;SDS011;17105;55.652;37.710;2023-02-20T03:11:54;27.63;;;12.60;;
30289;SDS011;17105;55.652;37.710;2023-02-20T03:12:35;32.15;;;13.50;;
30289;SDS011;17105;55.652;37.710;2023-02-20T03:13:12;31.58;;;13.13;;
30289;SDS011;17105;55.652;37.710;2023-02-20T03:13:49;32.65;;;14.00;;
30289;SDS011;17105;55.652;37.710;2023-02-20T03:14:49;35.60;;;14.13;;
30289;SDS011;17105;55.652;37.710;2023-02-20T03:15:50;34.28;;;14.27;;
30289;SDS011;17105;55.652;37.710;2023-02-20T03:16:34;31.45;;;12.65;;
30289;SDS011;17105;55.652;37.710;2023-02-20T03:17:17;34.45;;;13.25;;
30289;SDS011;17105;55.652;37.710;2023-02-20T03:18:32;31.13;;;12.27;;
30289;SDS011;17105;55.652;37.710;2023-02-20T03:19:13;31.73;;;12.93;;
30289;SDS011;17105;55.652;37.710;2023-02-20T03:19:54;30.08;;;12.85;;
30289;SDS011;17105;55.652;37.710;2023-02-20T03:20:30;31.35;;;12.98;;
30289;SDS011;17105;55.652;37.710;2023-02-20T03:21:06;26.73;;;12.13;;
30289;SDS011;17105;55.652;37.710;2023-02-20T03:21:45;30.58;;;12.82;;
30289;SDS011;17105;55.652;37.710;2023-02-20T03:22:21;31.73;;;13.43;;
30289;SDS011;17105;55.652;37.710;2023-02-20T03:23:00;31.85;;;13.23;;
30289;SDS011;17105;55.652;37.710;2023-02-20T03:23:39;32.60;;;13.13;;
30289;SDS011;17105;55.652;37.710;2023-02-20T03:24:20;30.55;;;13.35;;
30289;SDS011;17105;55.652;37.710;2023-02-20T03:24:58;28.50;;;12.52;;
30289;SDS011;17105;55.652;37.710;2023-02-20T03:25:45;29.05;;;12.57;;
30289;SDS011;17105;55.652;37.710;2023-02-20T03:26:29;33.10;;;13.13;;
30289;SDS011;17105;55.652;37.710;2023-02-20T03:27:11;30.63;;;12.15;;
30289;SDS011;17105;55.652;37.710;2023-02-20T03:27:45;26.80;;;12.20;;
30289;SDS011;17105;55.652;37.710;2023-02-20T03:28:26;30.77;;;13.02;;
30289;SDS011;17105;55.652;37.710;2023-02-20T03:29:05;29.48;;;12.45;;
30289;SDS011;17105;55.652;37.710;2023-02-20T03:29:48;32.28;;;12.63;;
30289;SDS011;17105;55.652;37.710;2023-02-20T03:30:27;28.50;;;12.25;;
30289;SDS011;17105;55.652;37.710;2023-02-20T03:31:10;29.48;;;11.95;;
30289;SDS011;17105;55.652;37.710;2023-02-20T03:31:52;40.53;;;16.10;;
30289;SDS011;17105;55.652;37.710;2023-02-20T03:32:48;46.45;;;17.27;;
30289;SDS011;17105;55.652;37.710;2023-02-20T03:33:44;31.88;;;13.02;;
30289;SDS011;17105;55.652;37.710;2023-02-20T03:34:40;29.13;;;11.82;;
30289;SDS011;17105;55.652;37.710;2023-02-20T03:35:37;29.38;;;11.95;;
30289;SDS011;17105;55.652;37.710;2023-02-20T03:36:36;28.38;;;11.88;;
30289;SDS011;17105;55.652;37.710;2023-02-20T03:37:35;26.35;;;11.75;;
30289;SDS011;17105;55.652;37.710;2023-02-20T03:38:29;27.33;;;11.07;;
30289;SDS011;17105;55.652;37.710;2023-02-20T03:39:29;30.70;;;12.20;;
30289;SDS011;17105;55.652;37.710;2023-02-20T03:40:28;31.25;;;12.00;;
30289;SDS011;17105;55.652;37.710;2023-02-20T03:41:26;30.55;;;11.48;;
30289;SDS011;17105;55.652;37.710;2023-02-20T03:42:20;24.95;;;11.40;;
30289;SDS011;17105;55.652;37.710;2023-02-20T03:43:25;31.13;;;11.95;;
30289;SDS011;17105;55.652;37.710;2023-02-20T03:44:05;31.73;;;12.50;;
30289;SDS011;17105;55.652;37.710;2023-02-20T03:44:42;28.35;;;12.00;;
30289;SDS011;17105;55.652;37.710;2023-02-20T03:45:17;30.33;;;11.80;;
30289;SDS011;17105;55.652;37.710;2023-02-20T03:45:57;25.38;;;11.90;;
30289;SDS011;17105;55.652;37.710;2023-02-20T03:46:36;30.58;;;12.32;;
30289;SDS011;17105;55.652;37.710;2023-02-20T03:47:12;29.38;;;11.85;;
30289;SDS011;17105;55.652;37.710;2023-02-20T03:47:56;28.85;;;12.88;;
30289;SDS011;17105;55.652;37.710;2023-02-20T03:48:38;27.88;;;11.80;;
30289;SDS011;17105;55.652;37.710;2023-02-20T03:49:26;27.10;;;11.25;;
30289;SDS011;17105;55.652;37.710;2023-02-20T03:50:12;29.55;;;12.25;;
30289;SDS011;17105;55.652;37.710;2023-02-20T03:50:59;27.63;;;11.80;;
30289;SDS011;17105;55.652;37.710;2023-02-20T03:52:36;24.40;;;10.32;;
30289;SDS011;17105;55.652;37.710;2023-02-20T03:53:12;25.85;;;11.25;;
30289;SDS011;17105;55.652;37.710;2023-02-20T03:53:46;28.83;;;11.75;;
30289;SDS011;17105;55.652;37.710;2023-02-20T03:54:19;28.00;;;11.40;;
30289;SDS011;17105;55.652;37.710;2023-02-20T03:54:55;26.27;;;12.07;;
30289;SDS011;17105;55.652;37.710;2023-02-20T03:55:30;31.17;;;12.63;;